Time,TemperatureF,DewpointF,PressureIn,WindDirection,WindDirectionDegrees,WindSpeedMPH,WindSpeedGustMPH,Humidity,HourlyPrecipIn,Conditions,Clouds,dailyrainin,SoftwareType,DateUTC
2013-11-24 00:01:00,27.7,15.6,29.56,WSW,247,0.0,0.0,60,0.00,,,0.00,WUHU21623XXSP,2013-11-24 05:01:00,
2013-11-24 00:06:00,27.5,15.4,29.56,SW,225,0.0,0.0,60,0.00,,,0.00,WUHU21623XXSP,2013-11-24 05:06:00,
2013-11-24 00:11:00,27.3,15.3,29.56,WNW,292,0.0,0.0,60,0.00,,,0.00,WUHU21623XXSP,2013-11-24 05:11:00,
2013-11-24 00:16:00,27.5,15.4,29.56,WSW,247,0.0,0.0,60,0.00,,,0.00,WUHU21623XXSP,2013-11-24 05:16:00,
2013-11-24 00:21:00,27.5,16.2,29.56,South,180,0.0,0.0,62,0.00,,,0.00,WUHU21623XXSP,2013-11-24 05:21:00,
2013-11-24 00:26:00,27.3,16.3,29.56,West,270,0.0,0.0,63,0.00,,,0.00,WUHU21623XXSP,2013-11-24 05:26:00,
2013-11-24 00:31:00,27.1,16.5,29.56,West,270,0.0,0.0,64,0.00,,,0.00,WUHU21623XXSP,2013-11-24 05:31:00,
2013-11-24 00:36:00,27.1,16.5,29.56,West,270,0.0,0.0,64,0.00,,,0.00,WUHU21623XXSP,2013-11-24 05:36:00,
2013-11-24 00:41:00,27.0,17.1,29.56,NW,315,0.0,0.0,66,0.00,,,0.00,WUHU21623XXSP,2013-11-24 05:41:00,
2013-11-24 00:46:00,26.6,16.7,29.56,WSW,247,0.0,0.0,66,0.00,,,0.00,WUHU21623XXSP,2013-11-24 05:46:00,
2013-11-24 00:51:00,26.4,16.5,29.56,West,270,0.0,0.0,66,0.00,,,0.00,WUHU21623XXSP,2013-11-24 05:51:00,
2013-11-24 00:56:00,26.4,16.2,29.56,West,270,0.0,0.0,65,0.00,,,0.00,WUHU21623XXSP,2013-11-24 05:56:00,
2013-11-24 00:57:00,26.4,16.2,29.56,West,270,0.0,0.0,65,0.00,,,0.00,WUHU21623XXSP,2013-11-24 05:57:00,
2013-11-24 01:02:00,26.4,15.8,29.56,West,270,0.0,0.0,64,0.00,,,0.00,WUHU21623XXSP,2013-11-24 06:02:00,
2013-11-24 01:07:00,26.4,15.4,29.56,West,270,0.0,0.0,63,0.00,,,0.00,WUHU21623XXSP,2013-11-24 06:07:00,
2013-11-24 01:12:00,26.4,15.4,29.56,West,270,0.0,0.0,63,0.00,,,0.00,WUHU21623XXSP,2013-11-24 06:12:00,
2013-11-24 01:17:00,26.4,15.4,29.57,SW,225,0.0,0.0,64,0.00,,,0.00,WUHU21623XXSP,2013-11-24 06:17:00,
2013-11-24 01:22:00,26.4,16.2,29.58,West,270,0.0,0.0,65,0.00,,,0.00,WUHU21623XXSP,2013-11-24 06:22:00,
2013-11-24 01:27:00,25.9,16.3,29.57,West,270,0.0,0.0,66,0.00,,,0.00,WUHU21623XXSP,2013-11-24 06:27:00,
2013-11-24 01:32:00,25.2,16.3,29.56,West,270,0.0,0.0,69,0.00,,,0.00,WUHU21623XXSP,2013-11-24 06:32:00,
2013-11-24 01:37:00,24.8,16.2,29.57,SW,225,0.0,0.0,69,0.00,,,0.00,WUHU21623XXSP,2013-11-24 06:37:00,
2013-11-24 01:42:00,24.6,15.8,29.56,SW,225,0.0,0.0,68,0.00,,,0.00,WUHU21623XXSP,2013-11-24 06:42:00,
2013-11-24 01:47:00,24.4,15.0,29.57,WSW,247,0.0,0.0,67,0.00,,,0.00,WUHU21623XXSP,2013-11-24 06:47:00,
2013-11-24 01:52:00,24.4,15.0,29.57,WSW,247,0.0,0.0,66,0.00,,,0.00,WUHU21623XXSP,2013-11-24 06:52:00,
2013-11-24 01:57:00,24.1,14.4,29.57,WNW,292,0.0,0.0,66,0.00,,,0.00,WUHU21623XXSP,2013-11-24 06:57:00,
2013-11-24 02:02:00,24.1,13.9,29.58,West,270,0.0,0.0,65,0.00,,,0.00,WUHU21623XXSP,2013-11-24 07:02:00,
2013-11-24 02:07:00,24.1,13.9,29.57,West,270,0.0,0.0,64,0.00,,,0.00,WUHU21623XXSP,2013-11-24 07:07:00,
2013-11-24 02:12:00,23.9,13.4,29.57,West,270,0.0,0.0,64,0.00,,,0.00,WUHU21623XXSP,2013-11-24 07:12:00,
2013-11-24 02:17:00,23.9,13.1,29.57,West,270,0.0,0.0,63,0.00,,,0.00,WUHU21623XXSP,2013-11-24 07:17:00,
2013-11-24 02:22:00,23.7,12.5,29.57,NW,315,0.0,0.0,62,0.00,,,0.00,WUHU21623XXSP,2013-11-24 07:22:00,
2013-11-24 02:27:00,23.7,12.2,29.57,WSW,247,0.0,0.0,61,0.00,,,0.00,WUHU21623XXSP,2013-11-24 07:27:00,
2013-11-24 02:32:00,23.7,12.2,29.57,WNW,292,0.0,0.0,61,0.00,,,0.00,WUHU21623XXSP,2013-11-24 07:32:00,
2013-11-24 02:37:00,23.7,12.2,29.57,West,270,0.0,0.0,61,0.00,,,0.00,WUHU21623XXSP,2013-11-24 07:37:00,
2013-11-24 02:42:00,23.7,11.4,29.57,West,270,0.0,0.0,59,0.00,,,0.00,WUHU21623XXSP,2013-11-24 07:42:00,
2013-11-24 02:47:00,23.7,11.4,29.57,WSW,247,0.0,0.0,59,0.00,,,0.00,WUHU21623XXSP,2013-11-24 07:47:00,
2013-11-24 02:52:00,23.5,11.4,29.57,WSW,247,0.0,0.0,59,0.00,,,0.00,WUHU21623XXSP,2013-11-24 07:52:00,
2013-11-24 02:57:00,23.5,11.2,29.56,WSW,247,0.0,0.0,59,0.00,,,0.00,WUHU21623XXSP,2013-11-24 07:57:00,
2013-11-24 03:02:00,23.5,11.2,29.56,West,270,0.0,0.0,59,0.00,,,0.00,WUHU21623XXSP,2013-11-24 08:02:00,
2013-11-24 03:07:00,23.4,10.7,29.56,NW,315,0.0,0.0,59,0.00,,,0.00,WUHU21623XXSP,2013-11-24 08:07:00,
2013-11-24 03:12:00,23.4,11.1,29.57,WNW,292,0.0,0.0,59,0.00,,,0.00,WUHU21623XXSP,2013-11-24 08:12:00,
2013-11-24 03:17:00,23.4,11.1,29.57,West,270,0.0,0.0,59,0.00,,,0.00,WUHU21623XXSP,2013-11-24 08:17:00,
2013-11-24 03:22:00,23.2,10.9,29.57,West,270,0.0,0.0,59,0.00,,,0.00,WUHU21623XXSP,2013-11-24 08:22:00,
2013-11-24 03:27:00,23.0,10.7,29.57,West,270,0.0,0.0,59,0.00,,,0.00,WUHU21623XXSP,2013-11-24 08:27:00,
2013-11-24 03:32:00,22.8,11.0,29.57,West,270,0.0,0.0,60,0.00,,,0.00,WUHU21623XXSP,2013-11-24 08:32:00,
2013-11-24 03:37:00,22.8,11.0,29.57,WSW,247,0.0,0.0,61,0.00,,,0.00,WUHU21623XXSP,2013-11-24 08:37:00,
2013-11-24 03:42:00,22.6,11.1,29.57,NW,315,0.0,0.0,61,0.00,,,0.00,WUHU21623XXSP,2013-11-24 08:42:00,
2013-11-24 03:47:00,22.6,11.1,29.57,NW,315,0.0,0.0,61,0.00,,,0.00,WUHU21623XXSP,2013-11-24 08:47:00,
2013-11-24 03:52:00,22.6,11.1,29.57,WSW,247,0.0,0.0,61,0.00,,,0.00,WUHU21623XXSP,2013-11-24 08:52:00,
2013-11-24 03:57:00,22.6,10.8,29.58,NNW,337,0.0,0.0,60,0.00,,,0.00,WUHU21623XXSP,2013-11-24 08:57:00,
2013-11-24 04:02:00,22.6,10.8,29.58,SSW,202,0.0,0.0,60,0.00,,,0.00,WUHU21623XXSP,2013-11-24 09:02:00,
2013-11-24 04:07:00,22.6,10.8,29.58,WSW,247,0.0,0.0,60,0.00,,,0.00,WUHU21623XXSP,2013-11-24 09:07:00,
2013-11-24 04:12:00,22.6,10.4,29.58,WSW,247,0.0,0.0,60,0.00,,,0.00,WUHU21623XXSP,2013-11-24 09:12:00,
2013-11-24 04:17:00,22.6,10.4,29.58,West,270,0.0,0.0,59,0.00,,,0.00,WUHU21623XXSP,2013-11-24 09:17:00,
2013-11-24 04:22:00,22.5,10.6,29.58,NW,315,0.0,0.0,60,0.00,,,0.00,WUHU21623XXSP,2013-11-24 09:22:00,
2013-11-24 04:27:00,22.3,10.5,29.58,West,270,0.0,0.0,60,0.00,,,0.00,WUHU21623XXSP,2013-11-24 09:27:00,
2013-11-24 04:32:00,22.3,10.5,29.58,WNW,292,0.0,0.0,60,0.00,,,0.00,WUHU21623XXSP,2013-11-24 09:32:00,
2013-11-24 04:37:00,22.1,10.5,29.58,West,270,0.0,0.0,60,0.00,,,0.00,WUHU21623XXSP,2013-11-24 09:37:00,
2013-11-24 04:42:00,22.1,10.3,29.59,West,270,0.0,0.0,60,0.00,,,0.00,WUHU21623XXSP,2013-11-24 09:42:00,
2013-11-24 04:47:00,21.9,10.1,29.58,West,270,0.0,0.0,60,0.00,,,0.00,WUHU21623XXSP,2013-11-24 09:47:00,
2013-11-24 04:52:00,21.9,10.5,29.58,WSW,247,0.0,0.0,61,0.00,,,0.00,WUHU21623XXSP,2013-11-24 09:52:00,
2013-11-24 04:57:00,21.9,10.5,29.58,WNW,292,0.0,0.0,61,0.00,,,0.00,WUHU21623XXSP,2013-11-24 09:57:00,
2013-11-24 05:02:00,21.9,10.5,29.58,West,270,0.0,0.0,61,0.00,,,0.00,WUHU21623XXSP,2013-11-24 10:02:00,
2013-11-24 05:07:00,21.7,10.3,29.59,WSW,247,0.0,0.0,61,0.00,,,0.00,WUHU21623XXSP,2013-11-24 10:07:00,
2013-11-24 05:12:00,21.7,10.3,29.59,West,270,0.0,0.0,61,0.00,,,0.00,WUHU21623XXSP,2013-11-24 10:12:00,
2013-11-24 05:17:00,21.7,10.7,29.59,WNW,292,0.0,0.0,62,0.00,,,0.00,WUHU21623XXSP,2013-11-24 10:17:00,
2013-11-24 05:22:00,21.9,10.8,29.58,West,270,0.0,0.0,62,0.00,,,0.00,WUHU21623XXSP,2013-11-24 10:22:00,
2013-11-24 05:27:00,21.9,10.8,29.58,WSW,247,0.0,0.0,62,0.00,,,0.00,WUHU21623XXSP,2013-11-24 10:27:00,
2013-11-24 05:32:00,21.7,10.7,29.58,WSW,247,0.0,0.0,62,0.00,,,0.00,WUHU21623XXSP,2013-11-24 10:32:00,
2013-11-24 05:37:00,21.7,10.7,29.58,WNW,292,0.0,0.0,63,0.00,,,0.00,WUHU21623XXSP,2013-11-24 10:37:00,
2013-11-24 05:42:00,21.6,10.8,29.59,West,270,0.0,0.0,63,0.00,,,0.00,WUHU21623XXSP,2013-11-24 10:42:00,
2013-11-24 05:47:00,21.6,10.8,29.59,West,270,0.0,0.0,63,0.00,,,0.00,WUHU21623XXSP,2013-11-24 10:47:00,
2013-11-24 05:52:00,21.4,10.7,29.59,WSW,247,0.0,0.0,63,0.00,,,0.00,WUHU21623XXSP,2013-11-24 10:52:00,
2013-11-24 05:57:00,21.4,10.7,29.59,WSW,247,0.0,0.0,63,0.00,,,0.00,WUHU21623XXSP,2013-11-24 10:57:00,
2013-11-24 06:02:00,21.4,11.0,29.59,West,270,0.0,0.0,64,0.00,,,0.00,WUHU21623XXSP,2013-11-24 11:02:00,
2013-11-24 06:07:00,21.4,11.0,29.60,WNW,292,0.0,0.0,64,0.00,,,0.00,WUHU21623XXSP,2013-11-24 11:07:00,
2013-11-24 06:12:00,21.4,11.4,29.60,West,270,0.0,0.0,65,0.00,,,0.00,WUHU21623XXSP,2013-11-24 11:12:00,
2013-11-24 06:17:00,21.4,11.7,29.60,WSW,247,0.0,0.0,66,0.00,,,0.00,WUHU21623XXSP,2013-11-24 11:17:00,
2013-11-24 06:22:00,21.4,11.7,29.60,WSW,247,0.0,0.0,66,0.00,,,0.00,WUHU21623XXSP,2013-11-24 11:22:00,
2013-11-24 06:27:00,21.2,11.6,29.60,WSW,247,0.0,0.0,66,0.00,,,0.00,WUHU21623XXSP,2013-11-24 11:27:00,
2013-11-24 06:32:00,21.0,11.4,29.61,WSW,247,0.0,0.0,66,0.00,,,0.00,WUHU21623XXSP,2013-11-24 11:32:00,
2013-11-24 06:37:00,21.0,11.4,29.61,WNW,292,0.0,0.0,66,0.00,,,0.00,WUHU21623XXSP,2013-11-24 11:37:00,
2013-11-24 06:42:00,20.8,11.2,29.60,West,270,0.0,0.0,66,0.00,,,0.00,WUHU21623XXSP,2013-11-24 11:42:00,
2013-11-24 06:47:00,20.5,11.2,29.61,WNW,292,0.0,0.0,66,0.00,,,0.00,WUHU21623XXSP,2013-11-24 11:47:00,
2013-11-24 06:52:00,20.5,10.5,29.61,SW,225,0.0,0.0,65,0.00,,,0.00,WUHU21623XXSP,2013-11-24 11:52:00,
2013-11-24 06:57:00,20.3,10.0,29.61,North,0,0.0,0.0,64,0.00,,,0.00,WUHU21623XXSP,2013-11-24 11:57:00,
2013-11-24 07:02:00,20.1,9.8,29.61,West,270,0.0,0.0,64,0.00,,,0.00,WUHU21623XXSP,2013-11-24 12:02:00,
2013-11-24 07:07:00,20.1,9.8,29.62,WSW,247,0.0,0.0,64,0.00,,,0.00,WUHU21623XXSP,2013-11-24 12:07:00,
2013-11-24 07:12:00,19.9,9.9,29.62,NW,315,0.0,0.0,65,0.00,,,0.00,WUHU21623XXSP,2013-11-24 12:12:00,
2013-11-24 07:17:00,19.9,9.9,29.63,West,270,0.0,0.0,65,0.00,,,0.00,WUHU21623XXSP,2013-11-24 12:17:00,
2013-11-24 07:22:00,19.9,9.9,29.63,WSW,247,0.0,0.0,65,0.00,,,0.00,WUHU21623XXSP,2013-11-24 12:22:00,
2013-11-24 07:27:00,19.9,9.9,29.62,WSW,247,0.0,0.0,65,0.00,,,0.00,WUHU21623XXSP,2013-11-24 12:27:00,
2013-11-24 07:32:00,19.9,9.6,29.62,SW,225,0.0,0.0,64,0.00,,,0.00,WUHU21623XXSP,2013-11-24 12:32:00,
2013-11-24 07:37:00,19.9,9.3,29.63,WSW,247,0.0,0.0,63,0.00,,,0.00,WUHU21623XXSP,2013-11-24 12:37:00,
2013-11-24 07:42:00,19.8,8.7,29.64,West,270,0.0,0.0,62,0.00,,,0.00,WUHU21623XXSP,2013-11-24 12:42:00,
2013-11-24 07:47:00,19.8,8.7,29.64,SW,225,0.0,0.0,62,0.00,,,0.00,WUHU21623XXSP,2013-11-24 12:47:00,
2013-11-24 07:52:00,19.6,8.6,29.64,NW,315,0.0,0.0,62,0.00,,,0.00,WUHU21623XXSP,2013-11-24 12:52:00,
2013-11-24 07:57:00,19.6,8.2,29.64,NW,315,0.0,0.0,61,0.00,,,0.00,WUHU21623XXSP,2013-11-24 12:57:00,
2013-11-24 08:02:00,19.6,7.5,29.65,West,270,0.0,0.0,59,0.00,,,0.00,WUHU21623XXSP,2013-11-24 13:02:00,
2013-11-24 08:07:00,19.6,7.5,29.64,WSW,247,0.0,0.0,58,0.00,,,0.00,WUHU21623XXSP,2013-11-24 13:07:00,
2013-11-24 08:12:00,19.6,7.1,29.65,WNW,292,0.0,0.0,57,0.00,,,0.00,WUHU21623XXSP,2013-11-24 13:12:00,
2013-11-24 08:17:00,19.8,6.9,29.66,WSW,247,0.0,0.0,57,0.00,,,0.00,WUHU21623XXSP,2013-11-24 13:17:00,
2013-11-24 08:22:00,19.9,6.6,29.65,North,0,0.0,0.0,56,0.00,,,0.00,WUHU21623XXSP,2013-11-24 13:22:00,
2013-11-24 08:27:00,20.1,6.8,29.66,West,270,0.0,0.0,56,0.00,,,0.00,WUHU21623XXSP,2013-11-24 13:27:00,
2013-11-24 08:32:00,20.3,7.0,29.66,WSW,247,0.0,0.0,56,0.00,,,0.00,WUHU21623XXSP,2013-11-24 13:32:00,
2013-11-24 08:37:00,20.5,6.7,29.66,WSW,247,0.0,0.0,54,0.00,,,0.00,WUHU21623XXSP,2013-11-24 13:37:00,
2013-11-24 08:42:00,20.8,6.7,29.66,WSW,247,0.0,0.0,54,0.00,,,0.00,WUHU21623XXSP,2013-11-24 13:42:00,
2013-11-24 08:47:00,21.0,6.8,29.67,WSW,247,0.0,0.0,54,0.00,,,0.00,WUHU21623XXSP,2013-11-24 13:47:00,
2013-11-24 08:52:00,21.0,6.4,29.67,WSW,247,0.0,0.0,53,0.00,,,0.00,WUHU21623XXSP,2013-11-24 13:52:00,
2013-11-24 08:57:00,21.0,6.4,29.66,NNW,337,0.0,0.0,52,0.00,,,0.00,WUHU21623XXSP,2013-11-24 13:57:00,
2013-11-24 09:02:00,21.0,6.0,29.67,West,270,0.0,0.0,52,0.00,,,0.00,WUHU21623XXSP,2013-11-24 14:02:00,
2013-11-24 09:07:00,21.4,5.9,29.67,West,270,0.0,0.0,51,0.00,,,0.00,WUHU21623XXSP,2013-11-24 14:07:00,
2013-11-24 09:12:00,21.4,5.9,29.67,SW,225,0.0,0.0,51,0.00,,,0.00,WUHU21623XXSP,2013-11-24 14:12:00,
2013-11-24 09:17:00,21.6,6.1,29.68,WNW,292,0.0,0.0,51,0.00,,,0.00,WUHU21623XXSP,2013-11-24 14:17:00,
2013-11-24 09:22:00,21.7,5.9,29.68,West,270,0.0,0.0,50,0.00,,,0.00,WUHU21623XXSP,2013-11-24 14:22:00,
2013-11-24 09:27:00,21.6,5.7,29.67,West,270,0.0,0.0,50,0.00,,,0.00,WUHU21623XXSP,2013-11-24 14:27:00,
2013-11-24 09:32:00,21.7,5.7,29.67,West,270,0.0,0.0,50,0.00,,,0.00,WUHU21623XXSP,2013-11-24 14:32:00,
2013-11-24 09:37:00,21.9,6.1,29.67,WNW,292,0.0,0.0,50,0.00,,,0.00,WUHU21623XXSP,2013-11-24 14:37:00,
2013-11-24 09:42:00,22.1,5.6,29.67,NW,315,0.0,0.0,49,0.00,,,0.00,WUHU21623XXSP,2013-11-24 14:42:00,
2013-11-24 09:47:00,22.3,6.3,29.68,WSW,247,0.0,0.0,50,0.00,,,0.00,WUHU21623XXSP,2013-11-24 14:47:00,
2013-11-24 09:52:00,22.5,6.1,29.68,NW,315,0.0,0.0,49,0.00,,,0.00,WUHU21623XXSP,2013-11-24 14:52:00,
2013-11-24 09:57:00,22.3,6.0,29.68,West,270,0.0,0.0,49,0.00,,,0.00,WUHU21623XXSP,2013-11-24 14:57:00,
2013-11-24 10:02:00,22.3,5.5,29.68,NW,315,0.0,0.0,48,0.00,,,0.00,WUHU21623XXSP,2013-11-24 15:02:00,
2013-11-24 10:07:00,22.3,5.5,29.68,South,180,0.0,0.0,48,0.00,,,0.00,WUHU21623XXSP,2013-11-24 15:07:00,
2013-11-24 10:12:00,22.1,5.3,29.68,West,270,0.0,0.0,48,0.00,,,0.00,WUHU21623XXSP,2013-11-24 15:12:00,
2013-11-24 10:17:00,22.3,6.0,29.67,NNE,22,0.0,0.0,49,0.00,,,0.00,WUHU21623XXSP,2013-11-24 15:17:00,
2013-11-24 10:22:00,22.5,5.6,29.67,West,270,0.0,0.0,48,0.00,,,0.00,WUHU21623XXSP,2013-11-24 15:22:00,
2013-11-24 10:27:00,22.6,5.8,29.68,WSW,247,0.0,0.0,48,0.00,,,0.00,WUHU21623XXSP,2013-11-24 15:27:00,
2013-11-24 10:32:00,22.8,6.5,29.68,NW,315,0.0,0.0,49,0.00,,,0.00,WUHU21623XXSP,2013-11-24 15:32:00,
2013-11-24 10:37:00,22.8,6.5,29.68,North,0,0.0,0.0,49,0.00,,,0.00,WUHU21623XXSP,2013-11-24 15:37:00,
2013-11-24 10:42:00,22.8,6.0,29.67,WNW,292,0.0,0.0,48,0.00,,,0.00,WUHU21623XXSP,2013-11-24 15:42:00,
2013-11-24 10:47:00,22.8,6.0,29.67,NW,315,0.0,0.0,48,0.00,,,0.00,WUHU21623XXSP,2013-11-24 15:47:00,
2013-11-24 10:52:00,23.2,5.9,29.67,WNW,292,0.0,0.0,47,0.00,,,0.00,WUHU21623XXSP,2013-11-24 15:52:00,
2013-11-24 10:57:00,23.2,5.4,29.67,West,270,0.0,0.0,46,0.00,,,0.00,WUHU21623XXSP,2013-11-24 15:57:00,
2013-11-24 11:02:00,23.2,5.4,29.67,SW,225,0.0,0.0,46,0.00,,,0.00,WUHU21623XXSP,2013-11-24 16:02:00,
2013-11-24 11:07:00,23.5,5.5,29.67,SSW,202,0.0,0.0,46,0.00,,,0.00,WUHU21623XXSP,2013-11-24 16:07:00,
2013-11-24 11:12:00,23.7,5.9,29.67,NW,315,0.0,0.0,46,0.00,,,0.00,WUHU21623XXSP,2013-11-24 16:12:00,
2013-11-24 11:17:00,23.9,5.4,29.67,NW,315,0.0,0.0,45,0.00,,,0.00,WUHU21623XXSP,2013-11-24 16:17:00,
2013-11-24 11:22:00,24.1,5.7,29.67,West,270,0.0,0.0,45,0.00,,,0.00,WUHU21623XXSP,2013-11-24 16:22:00,
2013-11-24 11:27:00,24.4,6.0,29.67,WNW,292,0.0,0.0,46,0.00,,,0.00,WUHU21623XXSP,2013-11-24 16:27:00,
2013-11-24 11:32:00,25.0,6.3,29.67,WSW,247,0.0,0.0,45,0.00,,,0.00,WUHU21623XXSP,2013-11-24 16:32:00,
2013-11-24 11:37:00,25.0,6.5,29.67,NW,315,0.0,0.0,45,0.00,,,0.00,WUHU21623XXSP,2013-11-24 16:37:00,
2013-11-24 11:42:00,25.2,6.5,29.68,NNW,337,0.0,0.0,44,0.00,,,0.00,WUHU21623XXSP,2013-11-24 16:42:00,
2013-11-24 11:47:00,25.2,6.2,29.67,WNW,292,0.0,0.0,44,0.00,,,0.00,WUHU21623XXSP,2013-11-24 16:47:00,
2013-11-24 11:52:00,25.3,6.2,29.67,WNW,292,0.0,0.0,43,0.00,,,0.00,WUHU21623XXSP,2013-11-24 16:52:00,
2013-11-24 11:57:00,25.3,5.9,29.67,WNW,292,0.0,0.0,43,0.00,,,0.00,WUHU21623XXSP,2013-11-24 16:57:00,
2013-11-24 12:02:00,25.5,6.0,29.68,WSW,247,0.0,0.0,42,0.00,,,0.00,WUHU21623XXSP,2013-11-24 17:02:00,
2013-11-24 12:07:00,25.5,5.5,29.67,SE,135,0.0,0.0,42,0.00,,,0.00,WUHU21623XXSP,2013-11-24 17:07:00,
2013-11-24 12:12:00,25.5,5.5,29.68,WNW,292,0.0,0.0,42,0.00,,,0.00,WUHU21623XXSP,2013-11-24 17:12:00,
2013-11-24 12:17:00,25.7,5.7,29.68,WNW,292,0.0,0.0,42,0.00,,,0.00,WUHU21623XXSP,2013-11-24 17:17:00,
2013-11-24 12:22:00,25.9,5.7,29.68,WNW,292,0.0,0.0,42,0.00,,,0.00,WUHU21623XXSP,2013-11-24 17:22:00,
2013-11-24 12:27:00,26.2,6.2,29.68,WSW,247,0.0,0.0,42,0.00,,,0.00,WUHU21623XXSP,2013-11-24 17:27:00,
2013-11-24 12:32:00,26.4,6.3,29.68,NW,315,0.0,0.0,42,0.00,,,0.00,WUHU21623XXSP,2013-11-24 17:32:00,
2013-11-24 12:37:00,26.6,6.5,29.68,West,270,0.0,0.0,42,0.00,,,0.00,WUHU21623XXSP,2013-11-24 17:37:00,
2013-11-24 12:42:00,26.8,6.7,29.69,SW,225,0.0,0.0,42,0.00,,,0.00,WUHU21623XXSP,2013-11-24 17:42:00,
2013-11-24 12:47:00,27.0,6.3,29.69,South,180,0.0,0.0,41,0.00,,,0.00,WUHU21623XXSP,2013-11-24 17:47:00,
2013-11-24 12:52:00,27.1,6.5,29.68,NW,315,0.0,0.0,41,0.00,,,0.00,WUHU21623XXSP,2013-11-24 17:52:00,
2013-11-24 12:57:00,27.1,6.5,29.68,NW,315,0.0,0.0,41,0.00,,,0.00,WUHU21623XXSP,2013-11-24 17:57:00,
2013-11-24 13:02:00,27.0,5.9,29.69,West,270,0.0,0.0,40,0.00,,,0.00,WUHU21623XXSP,2013-11-24 18:02:00,
2013-11-24 13:07:00,26.8,5.7,29.69,West,270,0.0,0.0,40,0.00,,,0.00,WUHU21623XXSP,2013-11-24 18:07:00,
2013-11-24 13:12:00,26.4,5.4,29.69,West,270,0.0,0.0,40,0.00,,,0.00,WUHU21623XXSP,2013-11-24 18:12:00,
2013-11-24 13:17:00,26.4,4.7,29.69,WNW,292,0.0,0.0,39,0.00,,,0.00,WUHU21623XXSP,2013-11-24 18:17:00,
2013-11-24 13:22:00,26.4,4.7,29.69,WSW,247,0.0,0.0,39,0.00,,,0.00,WUHU21623XXSP,2013-11-24 18:22:00,
2013-11-24 13:27:00,26.6,4.9,29.69,West,270,0.0,0.0,39,0.00,,,0.00,WUHU21623XXSP,2013-11-24 18:27:00,
2013-11-24 13:32:00,27.0,5.2,29.69,WNW,292,0.0,0.0,39,0.00,,,0.00,WUHU21623XXSP,2013-11-24 18:32:00,
2013-11-24 13:37:00,27.1,5.4,29.69,WNW,292,0.0,0.0,39,0.00,,,0.00,WUHU21623XXSP,2013-11-24 18:37:00,
2013-11-24 13:42:00,27.3,5.6,29.69,ENE,67,0.0,0.0,39,0.00,,,0.00,WUHU21623XXSP,2013-11-24 18:42:00,
2013-11-24 13:47:00,27.7,5.3,29.69,NW,315,0.0,0.0,38,0.00,,,0.00,WUHU21623XXSP,2013-11-24 18:47:00,
2013-11-24 13:52:00,28.0,5.3,29.69,SSW,202,0.0,0.0,37,0.00,,,0.00,WUHU21623XXSP,2013-11-24 18:52:00,
2013-11-24 13:57:00,28.4,5.9,29.70,WNW,292,0.0,0.0,38,0.00,,,0.00,WUHU21623XXSP,2013-11-24 18:57:00,
2013-11-24 14:02:00,28.8,5.6,29.71,WNW,292,0.0,0.0,37,0.00,,,0.00,WUHU21623XXSP,2013-11-24 19:02:00,
2013-11-24 14:07:00,28.8,5.0,29.71,WNW,292,0.0,0.0,35,0.00,,,0.00,WUHU21623XXSP,2013-11-24 19:07:00,
2013-11-24 14:12:00,28.6,4.2,29.71,WNW,292,0.0,0.0,34,0.00,,,0.00,WUHU21623XXSP,2013-11-24 19:12:00,
2013-11-24 14:17:00,28.6,3.5,29.70,WNW,292,0.0,0.0,34,0.00,,,0.00,WUHU21623XXSP,2013-11-24 19:17:00,
2013-11-24 14:22:00,28.2,3.2,29.71,West,270,0.0,0.0,34,0.00,,,0.00,WUHU21623XXSP,2013-11-24 19:22:00,
2013-11-24 14:27:00,28.2,2.6,29.71,NNW,337,0.0,0.0,33,0.00,,,0.00,WUHU21623XXSP,2013-11-24 19:27:00,
2013-11-24 14:32:00,28.0,2.4,29.72,NNW,337,0.0,0.0,33,0.00,,,0.00,WUHU21623XXSP,2013-11-24 19:32:00,
2013-11-24 14:37:00,28.0,2.4,29.73,WSW,247,0.0,0.0,34,0.00,,,0.00,WUHU21623XXSP,2013-11-24 19:37:00,
2013-11-24 14:42:00,28.0,2.4,29.73,SE,135,0.0,0.0,34,0.00,,,0.00,WUHU21623XXSP,2013-11-24 19:42:00,
2013-11-24 14:47:00,27.7,2.1,29.72,NW,315,0.0,0.0,33,0.00,,,0.00,WUHU21623XXSP,2013-11-24 19:47:00,
2013-11-24 14:52:00,27.7,2.1,29.73,NW,315,0.0,0.0,33,0.00,,,0.00,WUHU21623XXSP,2013-11-24 19:52:00,
2013-11-24 14:57:00,27.7,1.5,29.73,NW,315,0.0,0.0,32,0.00,,,0.00,WUHU21623XXSP,2013-11-24 19:57:00,
2013-11-24 15:02:00,27.5,1.3,29.74,NW,315,0.0,0.0,32,0.00,,,0.00,WUHU21623XXSP,2013-11-24 20:02:00,
2013-11-24 15:07:00,27.3,1.1,29.74,NW,315,0.0,0.0,32,0.00,,,0.00,WUHU21623XXSP,2013-11-24 20:07:00,
2013-11-24 15:12:00,27.3,1.1,29.75,NE,45,0.0,0.0,32,0.00,,,0.00,WUHU21623XXSP,2013-11-24 20:12:00,
2013-11-24 15:17:00,27.1,1.6,29.75,SSW,202,0.0,0.0,33,0.00,,,0.00,WUHU21623XXSP,2013-11-24 20:17:00,
2013-11-24 15:22:00,27.1,1.6,29.75,SSW,202,0.0,0.0,33,0.00,,,0.00,WUHU21623XXSP,2013-11-24 20:22:00,
2013-11-24 15:27:00,27.1,2.2,29.75,SSE,157,0.0,0.0,34,0.00,,,0.00,WUHU21623XXSP,2013-11-24 20:27:00,
2013-11-24 15:32:00,27.0,2.1,29.75,SW,225,0.0,0.7,34,0.00,,,0.00,WUHU21623XXSP,2013-11-24 20:32:00,
2013-11-24 15:37:00,26.8,2.6,29.75,West,270,0.0,0.7,35,0.00,,,0.00,WUHU21623XXSP,2013-11-24 20:37:00,
2013-11-24 15:42:00,26.4,2.2,29.76,WSW,247,0.0,0.0,35,0.00,,,0.00,WUHU21623XXSP,2013-11-24 20:42:00,
2013-11-24 15:47:00,26.1,1.9,29.77,West,270,0.0,0.0,35,0.00,,,0.00,WUHU21623XXSP,2013-11-24 20:47:00,
2013-11-24 15:52:00,25.5,1.8,29.77,WNW,292,0.0,0.0,35,0.00,,,0.00,WUHU21623XXSP,2013-11-24 20:52:00,
2013-11-24 15:57:00,25.3,1.3,29.77,West,270,0.0,0.0,35,0.00,,,0.00,WUHU21623XXSP,2013-11-24 20:57:00,
2013-11-24 16:02:00,25.0,1.0,29.77,West,270,0.0,0.0,35,0.00,,,0.00,WUHU21623XXSP,2013-11-24 21:02:00,
2013-11-24 16:07:00,25.0,1.6,29.78,NW,315,0.0,0.0,36,0.00,,,0.00,WUHU21623XXSP,2013-11-24 21:07:00,
2013-11-24 16:12:00,24.6,1.3,29.78,WSW,247,0.0,0.0,36,0.00,,,0.00,WUHU21623XXSP,2013-11-24 21:12:00,
2013-11-24 16:17:00,24.3,1.0,29.78,WSW,247,0.0,0.0,36,0.00,,,0.00,WUHU21623XXSP,2013-11-24 21:17:00,
2013-11-24 16:22:00,24.1,0.8,29.78,West,270,0.0,0.0,37,0.00,,,0.00,WUHU21623XXSP,2013-11-24 21:22:00,
2013-11-24 16:27:00,23.9,1.3,29.79,West,270,0.0,0.0,37,0.00,,,0.00,WUHU21623XXSP,2013-11-24 21:27:00,
2013-11-24 16:32:00,23.7,0.5,29.79,SSW,202,0.0,0.0,37,0.00,,,0.00,WUHU21623XXSP,2013-11-24 21:32:00,
2013-11-24 16:37:00,23.7,1.1,29.79,SSW,202,0.0,0.0,36,0.00,,,0.00,WUHU21623XXSP,2013-11-24 21:37:00,
2013-11-24 16:42:00,23.5,0.9,29.80,WSW,247,0.0,0.0,37,0.00,,,0.00,WUHU21623XXSP,2013-11-24 21:42:00,
2013-11-24 16:47:00,23.5,0.9,29.79,NNW,337,0.0,0.0,37,0.00,,,0.00,WUHU21623XXSP,2013-11-24 21:47:00,
2013-11-24 16:52:00,23.4,0.8,29.80,NW,315,0.0,0.0,37,0.00,,,0.00,WUHU21623XXSP,2013-11-24 21:52:00,
2013-11-24 16:57:00,23.4,0.8,29.79,NNW,337,0.0,0.0,37,0.00,,,0.00,WUHU21623XXSP,2013-11-24 21:57:00,
2013-11-24 17:02:00,23.2,0.6,29.80,West,270,0.0,0.0,37,0.00,,,0.00,WUHU21623XXSP,2013-11-24 22:02:00,
2013-11-24 17:07:00,23.2,1.2,29.80,SW,225,0.0,0.0,38,0.00,,,0.00,WUHU21623XXSP,2013-11-24 22:07:00,
2013-11-24 17:12:00,23.0,1.2,29.80,WSW,247,0.0,0.0,38,0.00,,,0.00,WUHU21623XXSP,2013-11-24 22:12:00,
2013-11-24 17:17:00,22.8,0.9,29.80,West,270,0.0,0.0,38,0.00,,,0.00,WUHU21623XXSP,2013-11-24 22:17:00,
2013-11-24 17:22:00,22.8,0.9,29.81,NNW,337,0.0,0.0,38,0.00,,,0.00,WUHU21623XXSP,2013-11-24 22:22:00,
2013-11-24 17:27:00,22.8,0.9,29.81,NW,315,0.0,0.0,38,0.00,,,0.00,WUHU21623XXSP,2013-11-24 22:27:00,
2013-11-24 17:32:00,22.8,0.9,29.81,WNW,292,0.0,0.0,38,0.00,,,0.00,WUHU21623XXSP,2013-11-24 22:32:00,
2013-11-24 17:37:00,22.6,1.4,29.81,WNW,292,0.0,0.0,39,0.00,,,0.00,WUHU21623XXSP,2013-11-24 22:37:00,
2013-11-24 17:41:00,22.5,1.2,29.81,West,270,0.0,0.0,39,0.00,,,0.00,WUHU21623XXSP,2013-11-24 22:41:00,
2013-11-24 17:46:00,22.3,1.0,29.82,West,270,0.0,0.0,39,0.00,,,0.00,WUHU21623XXSP,2013-11-24 22:46:00,
2013-11-24 17:51:00,22.3,1.0,29.82,NW,315,0.0,0.0,39,0.00,,,0.00,WUHU21623XXSP,2013-11-24 22:51:00,
2013-11-24 17:56:00,22.3,1.7,29.81,WNW,292,0.0,0.0,40,0.00,,,0.00,WUHU21623XXSP,2013-11-24 22:56:00,
2013-11-24 18:01:00,22.1,1.7,29.82,WNW,292,0.0,0.0,39,0.00,,,0.00,WUHU21623XXSP,2013-11-24 23:01:00,
2013-11-24 18:06:00,22.1,0.9,29.83,WSW,247,0.0,0.0,39,0.00,,,0.00,WUHU21623XXSP,2013-11-24 23:06:00,
2013-11-24 18:11:00,22.1,1.0,29.83,NW,315,0.0,0.0,39,0.00,,,0.00,WUHU21623XXSP,2013-11-24 23:11:00,
2013-11-24 18:16:00,22.1,1.5,29.83,West,270,0.0,0.0,40,0.00,,,0.00,WUHU21623XXSP,2013-11-24 23:16:00,
2013-11-24 18:21:00,22.1,1.5,29.83,NW,315,0.0,0.0,40,0.00,,,0.00,WUHU21623XXSP,2013-11-24 23:21:00,
2013-11-24 18:26:00,22.1,1.5,29.83,WSW,247,0.0,0.0,40,0.00,,,0.00,WUHU21623XXSP,2013-11-24 23:26:00,
2013-11-24 18:31:00,21.9,1.3,29.83,WNW,292,0.0,0.0,40,0.00,,,0.00,WUHU21623XXSP,2013-11-24 23:31:00,
2013-11-24 18:36:00,21.9,1.3,29.83,NNW,337,0.0,0.0,40,0.00,,,0.00,WUHU21623XXSP,2013-11-24 23:36:00,
2013-11-24 18:41:00,21.9,0.7,29.84,SW,225,0.0,0.0,39,0.00,,,0.00,WUHU21623XXSP,2013-11-24 23:41:00,
2013-11-24 18:46:00,21.9,1.3,29.84,North,0,0.0,0.0,40,0.00,,,0.00,WUHU21623XXSP,2013-11-24 23:46:00,
2013-11-24 18:51:00,21.9,1.3,29.84,NW,315,0.0,0.0,40,0.00,,,0.00,WUHU21623XXSP,2013-11-24 23:51:00,
2013-11-24 18:56:00,21.9,1.3,29.84,West,270,0.0,0.0,40,0.00,,,0.00,WUHU21623XXSP,2013-11-24 23:56:00,
2013-11-24 19:01:00,21.7,1.2,29.84,West,270,0.0,0.0,40,0.00,,,0.00,WUHU21623XXSP,2013-11-25 00:01:00,
2013-11-24 19:06:00,21.7,1.2,29.85,WSW,247,0.0,0.0,40,0.00,,,0.00,WUHU21623XXSP,2013-11-25 00:06:00,
2013-11-24 19:11:00,21.7,1.2,29.85,SSW,202,0.0,0.0,40,0.00,,,0.00,WUHU21623XXSP,2013-11-25 00:11:00,
2013-11-24 19:16:00,21.7,1.2,29.85,WSW,247,0.0,0.0,40,0.00,,,0.00,WUHU21623XXSP,2013-11-25 00:16:00,
2013-11-24 19:21:00,21.6,1.2,29.85,NW,315,0.0,0.0,40,0.00,,,0.00,WUHU21623XXSP,2013-11-25 00:21:00,
2013-11-24 19:26:00,21.6,1.0,29.85,West,270,0.0,0.0,40,0.00,,,0.00,WUHU21623XXSP,2013-11-25 00:26:00,
2013-11-24 19:31:00,21.6,1.0,29.85,NW,315,0.0,0.0,40,0.00,,,0.00,WUHU21623XXSP,2013-11-25 00:31:00,
2013-11-24 19:36:00,21.6,1.0,29.85,South,180,0.0,0.0,40,0.00,,,0.00,WUHU21623XXSP,2013-11-25 00:36:00,
2013-11-24 19:41:00,21.4,0.8,29.84,West,270,0.0,0.0,40,0.00,,,0.00,WUHU21623XXSP,2013-11-25 00:41:00,
2013-11-24 19:46:00,21.4,0.8,29.84,WNW,292,0.0,0.0,40,0.00,,,0.00,WUHU21623XXSP,2013-11-25 00:46:00,
2013-11-24 19:51:00,21.4,0.8,29.85,SW,225,0.0,0.0,40,0.00,,,0.00,WUHU21623XXSP,2013-11-25 00:51:00,
2013-11-24 19:56:00,21.4,0.8,29.85,WSW,247,0.0,0.0,40,0.00,,,0.00,WUHU21623XXSP,2013-11-25 00:56:00,
2013-11-24 20:01:00,21.4,0.8,29.85,North,0,0.0,0.0,40,0.00,,,0.00,WUHU21623XXSP,2013-11-25 01:01:00,
2013-11-24 20:06:00,21.4,0.8,29.85,West,270,0.0,0.0,40,0.00,,,0.00,WUHU21623XXSP,2013-11-25 01:06:00,
2013-11-24 20:11:00,21.4,0.8,29.85,NW,315,0.0,0.0,40,0.00,,,0.00,WUHU21623XXSP,2013-11-25 01:11:00,
2013-11-24 20:16:00,21.0,0.5,29.86,NW,315,0.0,0.0,40,0.00,,,0.00,WUHU21623XXSP,2013-11-25 01:16:00,
2013-11-24 20:21:00,21.0,0.5,29.85,SW,225,0.0,0.0,40,0.00,,,0.00,WUHU21623XXSP,2013-11-25 01:21:00,
2013-11-24 20:26:00,21.0,0.5,29.86,West,270,0.0,0.0,40,0.00,,,0.00,WUHU21623XXSP,2013-11-25 01:26:00,
2013-11-24 20:31:00,21.0,0.5,29.86,West,270,0.0,0.0,40,0.00,,,0.00,WUHU21623XXSP,2013-11-25 01:31:00,
2013-11-24 20:36:00,21.0,1.0,29.86,SSW,202,0.0,0.0,41,0.00,,,0.00,WUHU21623XXSP,2013-11-25 01:36:00,
2013-11-24 20:41:00,20.8,0.8,29.86,SW,225,0.0,0.0,41,0.00,,,0.00,WUHU21623XXSP,2013-11-25 01:41:00,
2013-11-24 20:46:00,20.8,0.8,29.86,West,270,0.0,0.0,41,0.00,,,0.00,WUHU21623XXSP,2013-11-25 01:46:00,
2013-11-24 20:51:00,20.8,0.8,29.87,NW,315,0.0,0.0,41,0.00,,,0.00,WUHU21623XXSP,2013-11-25 01:51:00,
2013-11-24 20:56:00,20.8,0.8,29.86,WNW,292,0.0,0.0,41,0.00,,,0.00,WUHU21623XXSP,2013-11-25 01:56:00,
2013-11-24 21:01:00,20.5,0.5,29.86,NW,315,0.0,0.0,41,0.00,,,0.00,WUHU21623XXSP,2013-11-25 02:01:00,
2013-11-24 21:06:00,20.5,0.5,29.86,West,270,0.0,0.0,41,0.00,,,0.00,WUHU21623XXSP,2013-11-25 02:06:00,
2013-11-24 21:11:00,20.5,1.0,29.86,West,270,0.0,0.0,42,0.00,,,0.00,WUHU21623XXSP,2013-11-25 02:11:00,
2013-11-24 21:16:00,20.5,1.0,29.87,WNW,292,0.0,0.0,42,0.00,,,0.00,WUHU21623XXSP,2013-11-25 02:16:00,
2013-11-24 21:21:00,20.5,1.0,29.87,WSW,247,0.0,0.0,42,0.00,,,0.00,WUHU21623XXSP,2013-11-25 02:21:00,
2013-11-24 21:26:00,20.5,1.0,29.87,WSW,247,0.0,0.0,42,0.00,,,0.00,WUHU21623XXSP,2013-11-25 02:26:00,
2013-11-24 21:31:00,20.3,0.8,29.88,WSW,247,0.0,0.0,42,0.00,,,0.00,WUHU21623XXSP,2013-11-25 02:31:00,
2013-11-24 21:36:00,20.3,0.8,29.88,South,180,0.0,0.0,42,0.00,,,0.00,WUHU21623XXSP,2013-11-25 02:36:00,
2013-11-24 21:41:00,20.1,0.6,29.88,WSW,247,0.0,0.0,42,0.00,,,0.00,WUHU21623XXSP,2013-11-25 02:41:00,
2013-11-24 21:46:00,20.1,0.6,29.89,NW,315,0.0,0.0,42,0.00,,,0.00,WUHU21623XXSP,2013-11-25 02:46:00,
2013-11-24 21:51:00,19.9,0.5,29.88,SW,225,0.0,0.0,42,0.00,,,0.00,WUHU21623XXSP,2013-11-25 02:51:00,
2013-11-24 21:56:00,19.9,0.5,29.89,NW,315,0.0,0.0,42,0.00,,,0.00,WUHU21623XXSP,2013-11-25 02:56:00,
2013-11-24 22:01:00,19.9,0.5,29.89,West,270,0.0,0.0,42,0.00,,,0.00,WUHU21623XXSP,2013-11-25 03:01:00,
2013-11-24 22:06:00,19.8,0.3,29.89,NNW,337,0.0,0.0,42,0.00,,,0.00,WUHU21623XXSP,2013-11-25 03:06:00,
2013-11-24 22:11:00,19.8,0.3,29.89,West,270,0.0,0.0,42,0.00,,,0.00,WUHU21623XXSP,2013-11-25 03:11:00,
2013-11-24 22:16:00,19.6,0.6,29.89,WSW,247,0.0,0.0,43,0.00,,,0.00,WUHU21623XXSP,2013-11-25 03:16:00,
2013-11-24 22:21:00,19.6,0.6,29.89,WSW,247,0.0,0.0,43,0.00,,,0.00,WUHU21623XXSP,2013-11-25 03:21:00,
2013-11-24 22:26:00,19.6,0.6,29.89,NNE,22,0.0,0.0,43,0.00,,,0.00,WUHU21623XXSP,2013-11-25 03:26:00,
2013-11-24 22:31:00,19.6,0.6,29.90,NW,315,0.0,0.0,43,0.00,,,0.00,WUHU21623XXSP,2013-11-25 03:31:00,
2013-11-24 22:36:00,19.6,0.6,29.90,South,180,0.0,0.0,43,0.00,,,0.00,WUHU21623XXSP,2013-11-25 03:36:00,
2013-11-24 22:41:00,19.4,0.5,29.90,WSW,247,0.0,0.0,43,0.00,,,0.00,WUHU21623XXSP,2013-11-25 03:41:00,
2013-11-24 22:46:00,19.4,0.5,29.91,WSW,247,0.0,0.0,43,0.00,,,0.00,WUHU21623XXSP,2013-11-25 03:46:00,
2013-11-24 22:51:00,19.4,0.5,29.90,NW,315,0.0,0.0,43,0.00,,,0.00,WUHU21623XXSP,2013-11-25 03:51:00,
2013-11-24 22:56:00,19.2,0.3,29.91,West,270,0.0,0.0,43,0.00,,,0.00,WUHU21623XXSP,2013-11-25 03:56:00,
2013-11-24 23:01:00,19.2,0.3,29.91,SW,225,0.0,0.0,43,0.00,,,0.00,WUHU21623XXSP,2013-11-25 04:01:00,
2013-11-24 23:06:00,19.2,0.3,29.91,SW,225,0.0,0.0,43,0.00,,,0.00,WUHU21623XXSP,2013-11-25 04:06:00,
2013-11-24 23:11:00,19.2,0.3,29.91,WNW,292,0.0,0.0,43,0.00,,,0.00,WUHU21623XXSP,2013-11-25 04:11:00,
2013-11-24 23:17:00,19.2,0.3,29.92,WSW,247,0.0,0.0,43,0.00,,,0.00,WUHU21623XXSP,2013-11-25 04:17:00,
2013-11-24 23:22:00,19.0,0.6,29.92,West,270,0.0,0.0,44,0.00,,,0.00,WUHU21623XXSP,2013-11-25 04:22:00,
2013-11-24 23:27:00,19.0,0.1,29.92,WSW,247,0.0,0.0,43,0.00,,,0.00,WUHU21623XXSP,2013-11-25 04:27:00,
2013-11-24 23:32:00,19.0,0.1,29.93,NW,315,0.0,0.0,43,0.00,,,0.00,WUHU21623XXSP,2013-11-25 04:32:00,
2013-11-24 23:37:00,18.9,0.0,29.93,West,270,0.0,0.0,43,0.00,,,0.00,WUHU21623XXSP,2013-11-25 04:37:00,
2013-11-24 23:42:00,18.7,-0.2,29.93,West,270,0.0,0.0,43,0.00,,,0.00,WUHU21623XXSP,2013-11-25 04:42:00,
2013-11-24 23:47:00,18.7,-0.2,29.93,SW,225,0.0,0.0,43,0.00,,,0.00,WUHU21623XXSP,2013-11-25 04:47:00,
2013-11-24 23:52:00,18.7,-0.2,29.93,SW,225,0.0,0.0,44,0.00,,,0.00,WUHU21623XXSP,2013-11-25 04:52:00,
2013-11-24 23:57:00,18.7,0.3,29.93,WNW,292,0.0,0.0,44,0.00,,,0.00,WUHU21623XXSP,2013-11-25 04:57:00,